Home > Products > Valid Products > TAF

000
FTUS43 KABR 180500
TAFPIR
TAF
KPIR 180528Z 1806/1906 12014KT P6SM OVC110
     FM181900 16025G33KT P6SM BKN150=



000
FTUS43 KABR 180500
TAFABR
TAF
KABR 180528Z 1806/1906 12011KT P6SM BKN070
     FM181300 14023G31KT P6SM BKN150=



000
FTUS43 KABR 180500
TAFATY
TAF
KATY 180528Z 1806/1906 14011KT P6SM BKN050 OVC070
     FM181600 15020G30KT P6SM BKN150=



000
FTUS43 KABR 180500
TAFMBG
TAF
KMBG 180528Z 1806/1906 13013KT P6SM FEW070 BKN150
     FM181100 14020G28KT P6SM BKN150=



000
FTUS43 KABR 180300 AAA
TAFMBG
TAF AMD
KMBG 180349Z 1804/1824 14013G20KT P6SM FEW100 SCT250
     FM180800 12018G26KT P6SM VCSH BKN080 BKN120
     FM181100 14020G28KT P6SM BKN150=



000
FTUS43 KABR 180300 AAB
TAFPIR
TAF AMD
KPIR 180344Z 1804/1824 14013G20KT P6SM FEW100 SCT250
     FM181900 16025G33KT P6SM BKN150=



000
FTUS43 KABR 180000 AAA
TAFPIR
TAF AMD
KPIR 180003Z 1800/1824 15014G22KT P6SM FEW040 FEW070
     FM181900 16025G33KT P6SM BKN150=



000
FTUS43 KABR 172300
TAFABR
TAF
KABR 172323Z 1800/1824 16010KT P6SM SCT250
     FM180900 11012KT P6SM VCSH OVC090
     FM181300 14023G31KT P6SM BKN150=



000
FTUS43 KABR 172300
TAFMBG
TAF
KMBG 172323Z 1800/1824 16013G21KT P6SM SCT040 SCT070
     FM180600 12018G26KT P6SM VCSH OVC080
     FM180900 14020G28KT P6SM BKN150=



000
FTUS43 KABR 172300
TAFPIR
TAF
KPIR 172323Z 1800/1824 16014G22KT P6SM FEW040 FEW070
     FM181900 16025G33KT P6SM BKN150=



000
FTUS43 KABR 172300
TAFATY
TAF
KATY 172323Z 1800/1824 14006KT P6SM VCSH SCT050 BKN100
     FM180100 14006KT P6SM SCT060 BKN250
     FM181400 13013KT P6SM VCSH OVC080
     FM181600 15020G30KT P6SM BKN150=



000
FTUS43 KABR 172100 AAA
TAFPIR
TAF AMD
KPIR 172158Z 1722/1818 13015G20KT P6SM OVC070
     FM180200 12015KT P6SM OVC120
     FM181500 14015G22KT P6SM SKC=



000
FTUS43 KABR 172000 AAA
TAFABR
TAF AMD
KABR 172043Z 1721/1818 10008KT P6SM SKC
     FM172100 13010KT P6SM BKN250
     FM180900 11012KT P6SM VCSH OVC050
     FM181200 12016G22KT P6SM BKN100
     FM181500 13022G28KT P6SM SKC=



000
FTUS43 KABR 172000 AAA
TAFMBG
TAF AMD
KMBG 172042Z 1721/1818 16013G20KT P6SM OVC070
     FM180100 13015KT P6SM OVC100
     FM180600 11018G24KT P6SM VCSH OVC050
     FM180900 13020G26KT P6SM BKN100=



000
FTUS43 KABR 172000 AAA
TAFATY
TAF AMD
KATY 172039Z 1721/1818 VRB03KT P6SM SKC
     FM180000 12005KT P6SM VCSH BKN050
     FM180300 11005KT P6SM SCT250
     FM181500 14017G23KT P6SM VCSH OVC050=



000
FTUS43 KABR 171700
TAFPIR
TAF
KPIR 171720Z 1718/1818 14011KT P6SM BKN060
     FM172100 14018G23KT P6SM BKN100
     FM180200 12015KT P6SM OVC120
     FM181500 14015G22KT P6SM SKC=



000
FTUS43 KABR 171700
TAFABR
TAF
KABR 171720Z 1718/1818 10008KT P6SM SKC
     FM172100 13010KT P6SM BKN250
     FM180800 11012KT P6SM OVC050
     FM181500 13022G28KT P6SM SKC=



000
FTUS43 KABR 171700
TAFMBG
TAF
KMBG 171720Z 1718/1818 16009KT P6SM SKC
     FM172000 15014G21KT P6SM OVC100
     FM180100 13015KT P6SM OVC100
     FM180800 12019G25KT P6SM BKN100=



000
FTUS43 KABR 171700
TAFATY
TAF
KATY 171720Z 1718/1818 03008KT P6SM SKC
     FM172100 VRB03KT P6SM SKC
     FM180000 13008KT P6SM SCT250
     FM181500 14017G23KT P6SM VCSH OVC050=



000
FTUS43 KABR 171100
TAFPIR
TAF
KPIR 171123Z 1712/1812 11007KT P6SM BKN090
     FM171700 13014KT P6SM BKN100
     FM180000 13019KT P6SM SCT150=



000
FTUS43 KABR 171100
TAFATY
TAF
KATY 171123Z 1712/1812 36008KT P6SM SKC
     FM171600 04006KT P6SM BKN080
     FM172200 12009KT P6SM BKN100
     FM180500 13017KT P6SM OVC040=



000
FTUS43 KABR 171100
TAFMBG
TAF
KMBG 171123Z 1712/1812 12007KT P6SM BKN070
     FM171700 13014KT P6SM BKN080
     FM180000 14019KT P6SM SCT100=



000
FTUS43 KABR 171100
TAFABR
TAF
KABR 171123Z 1712/1812 36006KT P6SM SKC
     FM171400 05006KT P6SM BKN070
     FM172000 12009KT P6SM BKN100
     FM180300 13017KT P6SM OVC050=



000
FTUS43 KABR 170900 AAA
TAFATY
TAF AMD
KATY 170947Z 1710/1806 35010KT P6SM FEW250
     FM172100 10006KT P6SM SKC=



000
FTUS43 KABR 170500
TAFABR
TAF
KABR 170527Z 1706/1806 36007KT P6SM SCT250
     FM171800 11008KT P6SM SKC=



000
FTUS43 KABR 170500
TAFMBG
TAF
KMBG 170527Z 1706/1806 05008KT P6SM SCT250
     FM171400 13012KT P6SM SKC=



000
FTUS43 KABR 170500
TAFATY
TAF
KATY 170527Z 1706/1806 02010KT P6SM FEW250
      TEMPO 1710/1714 VRB06KT 3SM BR
     FM172100 10006KT P6SM SKC=



000
FTUS43 KABR 170500
TAFPIR
TAF
KPIR 170527Z 1706/1806 03007KT P6SM SCT250
     FM171600 14012G20KT P6SM SKC=



000
FTUS43 KABR 170300 AAB
TAFATY
TAF AMD
KATY 170326Z 1703/1724 02019KT P6SM OVC020
     FM170400 02006KT P6SM SKC
      TEMPO 1710/1714 2SM BR
     FM171600 09006KT P6SM SKC=



000
FTUS43 KABR 170200 AAA
TAFATY
TAF AMD
KATY 170200Z 1702/1724 02018KT P6SM OVC020
     FM170600 02006KT P6SM SKC
      TEMPO 1710/1714 2SM BR
     FM171600 09006KT P6SM SKC=



000
FTUS43 KABR 170100 AAA
TAFABR
TAF AMD
KABR 170104Z 1701/1724 03010KT P6SM BKN035
     FM170130 03010KT P6SM FEW035
     FM171800 12008KT P6SM SKC=



000
FTUS43 KABR 162300 CCA
TAFATY
TAF COR
KATY 162328Z 1700/1724 02018G26KT 3SM BR OVC010
     FM170900 02006KT 2SM BR SKC
     FM171600 09006KT P6SM SKC=



000
FTUS43 KABR 162300
TAFABR
TAF
KABR 162327Z 1700/1724 02017G23KT P6SM BKN025
     FM170200 01010KT P6SM SCT030
     FM171800 12008KT P6SM SKC=



000
FTUS43 KABR 162300
TAFATY
TAF
KATY 162327Z 1700/1724 02018G26KT 3SM BR OVC009
     FM170900 02006KT 2SM BR SKC
     FM171600 09006KT P6SM SKC=



000
FTUS43 KABR 162300
TAFPIR
TAF
KPIR 162327Z 1700/1724 03012KT P6SM OVC035
     FM170300 06007KT P6SM SCT040
     FM171500 14012G20KT P6SM OVC030=



000
FTUS43 KABR 162300
TAFMBG
TAF
KMBG 162327Z 1700/1724 01011KT P6SM FEW035
     FM170300 06009KT P6SM SKC
     FM171400 13013KT P6SM SCT030=



000
FTUS43 KABR 162300 AAB
TAFABR
TAF AMD
KABR 162305Z 1623/1718 02017G23KT P6SM OVC025
     FM170100 03015G25KT P6SM SCT025
     FM170200 01010KT P6SM OVC030
     FM170500 01006KT P6SM OVC060=



000
FTUS43 KABR 162200 AAD
TAFPIR
TAF AMD
KPIR 162248Z 1623/1718 03015KT P6SM OVC035
     FM170000 05010KT P6SM BKN035
     FM170600 09008KT P6SM FEW040=



000
FTUS43 KABR 162200 AAC
TAFMBG
TAF AMD
KMBG 162208Z 1622/1718 02014KT P6SM FEW035
     FM170100 06010KT P6SM SKC
     FM171000 12010KT P6SM SKC=



000
FTUS43 KABR 162200 AAC
TAFPIR
TAF AMD
KPIR 162206Z 1622/1718 03015G21KT P6SM OVC026
     FM170000 05010KT P6SM BKN035
     FM170600 09008KT P6SM FEW040=



000
FTUS43 KABR 162200 AAC
TAFATY
TAF AMD
KATY 162204Z 1622/1718 03019G27KT 3SM BR OVC009
     FM170000 36016KT P6SM OVC015
     FM170700 01010KT P6SM OVC060=



000
FTUS43 KABR 162100 AAA
TAFABR
TAF AMD
KABR 162151Z 1622/1718 03020G26KT P6SM OVC024
     FM162300 03015G25KT P6SM SCT025
     FM170200 01010KT P6SM OVC030
     FM170500 01006KT P6SM OVC060=



000
FTUS43 KABR 162000 AAB
TAFATY
TAF AMD
KATY 162050Z 1621/1718 03020G28KT 3SM -SN BLSN OVC015
     FM162100 03020G28KT P6SM OVC015
     FM170000 36016KT P6SM OVC015
     FM170700 01010KT P6SM OVC060=



000
FTUS43 KABR 162000 AAB
TAFPIR
TAF AMD
KPIR 162001Z 1620/1718 36015KT P6SM OVC015
     FM170000 03010KT P6SM OVC060=



000
FTUS43 KABR 162000 AAA
TAFATY
TAF AMD
KATY 162000Z 1620/1718 03020G28KT 2SM -SN BLSN OVC015
     FM162100 03020G28KT P6SM OVC015
     FM170000 36016KT P6SM OVC015
     FM170700 01010KT P6SM OVC060=



000
FTUS43 KABR 161900 AAB
TAFMBG
TAF AMD
KMBG 161922Z 1619/1718 02015KT P6SM OVC020
     FM162200 03015KT P6SM BKN050
     FM170100 03007KT P6SM OVC060=



000
FTUS43 KABR 161800 AAA
TAFMBG
TAF AMD
KMBG 161801Z 1618/1718 02015KT P6SM OVC015
     FM162200 03015KT P6SM BKN050
     FM170100 03007KT P6SM OVC060=



000
FTUS43 KABR 161800 AAA
TAFPIR
TAF AMD
KPIR 161801Z 1618/1718 36018G25KT P6SM OVC015
     FM170000 03010KT P6SM OVC060=



000
FTUS43 KABR 161700
TAFABR
TAF
KABR 161731Z 1618/1718 04020G30KT P6SM OVC015
     FM170200 01010KT P6SM OVC030
     FM170500 01006KT P6SM OVC060=



000
FTUS43 KABR 161700
TAFATY
TAF
KATY 161731Z 1618/1718 03021G30KT 1/4SM SN BLSN OVC005
     FM161815 03020G28KT 2SM -SN BLSN OVC015
     FM162000 03020G28KT P6SM OVC015
     FM170000 36016KT P6SM OVC015
     FM170700 01010KT P6SM OVC060=



000
FTUS43 KABR 161700
TAFMBG
TAF
KMBG 161731Z 1618/1718 04015KT P6SM OVC015
     FM162200 03015KT P6SM BKN050
     FM170100 03007KT P6SM OVC060=



000
FTUS43 KABR 161700
TAFPIR
TAF
KPIR 161731Z 1618/1718 02018G25KT P6SM OVC015
     FM170000 03010KT P6SM OVC060=



000
FTUS43 KABR 161700 AAD
TAFMBG
TAF AMD
KMBG 161702Z 1617/1712 05015KT P6SM OVC015
     FM162000 01015KT P6SM BKN050
     FM170100 03007KT P6SM SKC=



000
FTUS43 KABR 161600 AAD
TAFPIR
TAF AMD
KPIR 161611Z 1616/1712 02015KT P6SM OVC010
     FM161800 36018G27KT P6SM BKN035
     FM170000 36010KT P6SM SKC=



000
FTUS43 KABR 161500 AAC
TAFATY
TAF AMD
KATY 161558Z 1616/1712 05015KT 1/4SM SN BLSN OVC015
     FM161730 03021G30KT 3SM -SN BLSN OVC015
     FM170000 36016KT P6SM OVC030
     FM170500 01010KT P6SM SKC=



000
FTUS43 KABR 161500 AAC
TAFMBG
TAF AMD
KMBG 161536Z 1616/1712 05015G22KT P6SM OVC015
     FM161700 02020G28KT P6SM BKN035
     FM162000 01015KT P6SM BKN050
     FM170100 03007KT P6SM SKC=



000
FTUS43 KABR 161400 AAC
TAFABR
TAF AMD
KABR 161452Z 1615/1712 04015G23KT P6SM OVC015
     FM161800 02020G30KT P6SM BKN030
     FM170000 01010KT P6SM SKC=



000
FTUS43 KABR 161400 AAC
TAFPIR
TAF AMD
KPIR 161452Z 1615/1712 36020KT P6SM OVC010
     FM161600 36018G27KT P6SM BKN035
     FM170000 36010KT P6SM SKC=



000
FTUS43 KABR 161400 AAB
TAFATY
TAF AMD
KATY 161451Z 1615/1712 07020G30KT 1/2SM SN BLSN OVC015
     FM162000 03021G30KT 2SM -SN BLSN OVC025
     FM170000 36016KT P6SM OVC030
     FM170500 01010KT P6SM SKC=



000
FTUS43 KABR 161400 AAB
TAFABR
TAF AMD
KABR 161414Z 1614/1712 05015G23KT 2SM -SN OVC010
     FM161600 05020G30KT 3SM -SN OVC015
     FM161800 02020G30KT P6SM BKN030
     FM170000 01010KT P6SM SKC=



000
FTUS43 KABR 161400 AAA
TAFATY
TAF AMD
KATY 161413Z 1614/1712 09020G30KT P6SM OVC040
     FM161500 09020G30KT 1SM -SN OVC025
     FM161600 07020G30KT 1/2SM SN BLSN OVC009
     FM162000 03021G30KT 2SM -SN BLSN OVC025
     FM170000 36016KT P6SM OVC030
     FM170500 01010KT P6SM SKC=



000
FTUS43 KABR 161300 AAB
TAFMBG
TAF AMD
KMBG 161341Z 1614/1712 05015G22KT P6SM OVC025
     FM161500 02020G28KT P6SM BKN035
     FM162000 01015KT P6SM BKN050
     FM170100 03007KT P6SM SKC=



000
FTUS43 KABR 161300 AAA
TAFABR
TAF AMD
KABR 161340Z 1614/1712 05015KT 1SM -SN OVC010
     FM161600 05020G30KT 3SM -SN OVC015
     FM161800 02020G30KT P6SM BKN030
     FM170000 01010KT P6SM SKC=



000
FTUS43 KABR 161300 AAB
TAFPIR
TAF AMD
KPIR 161340Z 1614/1712 36015KT 2SM -SN OVC009
     FM161600 36018G27KT P6SM BKN035
     FM170000 36010KT P6SM SKC=



000
FTUS43 KABR 161300 AAA
TAFMBG
TAF AMD
KMBG 161311Z 1613/1712 03015G24KT P6SM OVC090
     FM161500 02020G28KT P6SM BKN035
     FM162000 01015KT P6SM BKN050
     FM170100 03007KT P6SM SKC=



000
FTUS43 KABR 161200 AAA
TAFPIR
TAF AMD
KPIR 161228Z 1612/1712 03018G27KT P6SM -SN OVC040
      TEMPO 1612/1614 3SM -FZRASN OVC025
     FM161400 02020G30KT 5SM -SN OVC025
     FM161600 36018G27KT P6SM BKN035
     FM170000 36010KT P6SM SKC=



000
FTUS43 KABR 161200 CCA
TAFPIR
TAF COR
KPIR 161211Z 1612/1712 03018G27KT P6SM -SN OVC040
      TEMPO 1612/1614 3SM -SN OVC025
     FM161400 02020G30KT 5SM -SN OVC025
     FM161600 36018G27KT P6SM BKN035
     FM170000 36010KT P6SM SKC=



000
FTUS43 KABR 161200 CCA
TAFMBG
TAF COR
KMBG 161209Z 1612/1712 03015G24KT P6SM OVC070
      TEMPO 1612/1615 BKN030
     FM161500 02020G28KT P6SM BKN035
     FM162000 01015KT P6SM BKN050
     FM170100 03007KT P6SM SKC=



000
FTUS43 KABR 161100
TAFMBG
TAF
KMBG 161135Z 1612/1712 03019G27KT P6SM OVC070
     FM161500 02020G28KT P6SM BKN035
     FM162000 01015KT P6SM BKN050
     FM170100 03007KT P6SM SKC=



000
FTUS43 KABR 161100
TAFABR
TAF
KABR 161135Z 1612/1712 08021G29KT P6SM -SN OVC035
      TEMPO 1612/1613 2SM -SN OVC025
     FM161300 07020G30KT 1SM -SN OVC015
     FM161600 05020G30KT 3SM -SN OVC015
     FM161800 02020G30KT P6SM BKN030
     FM170000 01010KT P6SM SKC=



000
FTUS43 KABR 161100
TAFPIR
TAF
KPIR 161135Z 1612/1712 03018G27KT 5SM -SN OVC040
      TEMPO 1612/1613 2SM -SN OVC025
     FM161300 02020G30KT 3SM -SN OVC025
     FM161600 36018G27KT P6SM BKN035
     FM170000 36010KT P6SM SKC=



000
FTUS43 KABR 161100
TAFATY
TAF
KATY 161135Z 1612/1712 09020G30KT P6SM OVC040
      TEMPO 1612/1614 3SM -SN OVC030
     FM161400 09020G30KT 1SM -SN OVC025
     FM161500 07020G30KT 1/2SM SN BLSN OVC009
     FM162000 03021G30KT 2SM -SN BLSN OVC025
     FM170000 36016KT P6SM OVC030
     FM170500 01010KT P6SM SKC=



000
FTUS43 KABR 161000 AAA
TAFABR
TAF AMD
KABR 161007Z 1610/1706 08021G27KT P6SM VCSH OVC080
     FM161300 09015G24KT 4SM -SN OVC035
     FM161500 03020G27KT 1SM -SN OVC015
     FM161800 02023G30KT P6SM OVC025
     FM170000 01014KT P6SM BKN035 OVC100=



000
FTUS43 KABR 160900 AAB
TAFMBG
TAF AMD
KMBG 160941Z 1610/1706 07024G30KT 3SM -SN OVC040
      TEMPO 1610/1612 P6SM -FZRA BKN025
     FM161200 03020G28KT 5SM -SN OVC025
     FM161600 02015G23KT P6SM OVC030
     FM170000 05011KT P6SM BKN035 OVC100=



000
FTUS43 KABR 160800 AAA
TAFMBG
TAF AMD
KMBG 160834Z 1609/1706 07025G33KT P6SM VCSH BKN050
     FM161000 05024G30KT 4SM -SN BKN025 OVC050
     FM161200 03020G28KT 2SM -SN OVC025
     FM161600 02015G23KT P6SM OVC030
     FM170000 05011KT P6SM BKN035 OVC100=



000
FTUS43 KABR 160700 AAA
TAFATY
TAF AMD
KATY 160735Z 1608/1706 10014G19KT P6SM BKN100
     FM161000 09018G25KT P6SM VCSH OVC080
     FM161200 08018G25KT 4SM -SN OVC035
     FM161400 05015G23KT 1SM -SN OVC015
     FM162100 02021G30KT 2SM -SN BLSN OVC025
     FM170200 36016KT P6SM OVC030=



000
FTUS43 KABR 160700 AAA
TAFABR
TAF AMD
KABR 160734Z 1608/1706 09019G26KT P6SM BKN100
     FM160900 08021G27KT P6SM VCSH OVC080
     FM161100 09015G24KT 4SM -SN OVC035
     FM161300 03020G27KT 1SM -SN BLSN OVC015
     FM161800 02023G30KT 6SM BLSN OVC025
     FM170000 01014KT P6SM BKN035 OVC100=



000
FTUS43 KABR 160500
TAFPIR
TAF
KPIR 160522Z 1606/1706 10013KT P6SM OVC120
     FM160900 06015G23KT P6SM -RA OVC050
     FM161200 01024G32KT 4SM -RASN OVC030
     FM161400 36024G32KT 2SM -SN BLSN OVC025
     FM161800 36018G27KT P6SM OVC030
     FM170000 02013KT P6SM BKN035 OVC100=



000
FTUS43 KABR 160500
TAFMBG
TAF
KMBG 160522Z 1606/1706 08025G33KT P6SM SCT060 OVC100
     FM160800 06025G33KT P6SM VCSH BKN050 OVC080
     FM161000 05024G30KT 4SM -RASN BKN025 OVC050
     FM161200 03020G28KT 1SM -SN BLSN OVC025
     FM161600 02015G23KT P6SM OVC030
     FM170000 05011KT P6SM BKN035 OVC100=



000
FTUS43 KABR 160500
TAFATY
TAF
KATY 160522Z 1606/1706 10014G19KT P6SM BKN100
     FM161000 09018G25KT P6SM VCSH OVC080
     FM161200 08018G25KT 4SM -RASN OVC035
     FM161400 05015G23KT 1SM -SN OVC015
     FM162100 02021G30KT 2SM -SN BLSN OVC025
     FM170200 36016KT P6SM OVC030=



000
FTUS43 KABR 160500
TAFABR
TAF
KABR 160522Z 1606/1706 09019G26KT P6SM BKN100 OVC150
     FM160900 08021G27KT P6SM VCSH OVC080
     FM161100 09015G24KT 4SM -RASN OVC035
     FM161300 03020G27KT 1SM -SN BLSN OVC015
     FM161800 02023G30KT 6SM BLSN OVC025
     FM170000 01014KT P6SM BKN035 OVC100=



000
FTUS43 KABR 160400 AAB
TAFPIR
TAF AMD
KPIR 160403Z 1604/1624 12013KT P6SM OVC120
     FM160900 09015KT P6SM -RA OVC050
     FM161200 01019G25KT 4SM -RASN OVC030
     FM161400 36027G35KT 2SM -SN BR OVC025
     FM161800 36023G29KT P6SM OVC030=



000
FTUS43 KABR 160400 AAA
TAFABR
TAF AMD
KABR 160402Z 1604/1624 09019G26KT P6SM BKN100 OVC150
     FM160600 08021G27KT P6SM VCSH OVC080
     FM160800 09015G24KT 4SM -RASN OVC035
     FM161200 03020G27KT 1SM -SN OVC015
     FM161700 02023G30KT P6SM OVC025=



000
FTUS43 KABR 160300 AAB
TAFMBG
TAF AMD
KMBG 160352Z 1604/1624 08022G29KT P6SM VCSH BKN060 OVC090
     FM160700 05024G30KT 4SM -RASN OVC035
     FM160900 03020G27KT 1SM -SN OVC015
     FM161300 02022G29KT P6SM OVC025=



000
FTUS43 KABR 160300 AAA
TAFATY
TAF AMD
KATY 160351Z 1604/1624 10014G19KT P6SM BKN100
     FM160800 09018G25KT P6SM VCSH OVC080
     FM161000 08016G23KT 4SM -RASN OVC035
     FM161200 05013G21KT 1SM -SN OVC015
     FM161800 02021G30KT 2SM -SN OVC025=



000
FTUS43 KABR 160100 AAA
TAFPIR
TAF AMD
KPIR 160101Z 1601/1624 12013KT P6SM OVC120
     FM160500 09015KT P6SM -RA OVC050
     FM160900 01019G25KT 4SM -RASN OVC030
     FM161200 36027G35KT 2SM -SN BR OVC025
     FM161600 36023G29KT P6SM OVC030=



000
FTUS43 KABR 160100 AAA
TAFMBG
TAF AMD
KMBG 160101Z 1601/1624 11018KT P6SM SCT120 OVC150
     FM160400 08022G29KT P6SM VCSH OVC050
     FM160700 05024G30KT 4SM -RASN OVC035
     FM160900 03020G27KT 1SM -SN OVC015
     FM161300 02022G29KT P6SM OVC025=



000
FTUS43 KABR 160100 AAA
TAFABR
TAF AMD
KABR 160100Z 1601/1624 11014G23KT P6SM SCT120 OVC150
     FM160200 09020G28KT P6SM BKN100
     FM160600 08021G27KT P6SM VCSH OVC080
     FM160800 09015G24KT 4SM -RASN OVC035
     FM161200 03020G27KT 1SM -SN OVC015
     FM161700 02023G30KT P6SM OVC025=



000
FTUS43 KABR 152300
TAFMBG
TAF
KMBG 152339Z 1600/1624 14016KT P6SM SCT120 OVC150
     FM160400 08022G29KT P6SM VCSH OVC050
     FM160700 05024G30KT 4SM -RASN OVC035
     FM160900 03020G27KT 1SM -SN OVC015
     FM161300 02022G29KT P6SM OVC025=



000
FTUS43 KABR 152300
TAFABR
TAF
KABR 152339Z 1600/1624 15021G25KT P6SM SCT120 OVC150
     FM160200 09020G28KT P6SM BKN100
     FM160600 08021G27KT P6SM VCSH OVC080
     FM160800 09015G24KT 4SM -RASN OVC035
     FM161200 03020G27KT 1SM -SN OVC015
     FM161700 02023G30KT P6SM OVC025=



000
FTUS43 KABR 152300
TAFATY
TAF
KATY 152339Z 1600/1624 15014G19KT P6SM BKN100
     FM160800 09018G25KT P6SM VCSH OVC080
     FM161000 08016G23KT 4SM -RASN OVC035
     FM161200 05013G21KT 1SM -SN OVC015
     FM161800 02021G30KT 2SM -SN OVC025=



000
FTUS43 KABR 152300
TAFPIR
TAF
KPIR 152339Z 1600/1624 19005KT P6SM SCT120 OVC150
     FM160200 12013KT P6SM OVC120
     FM160500 09015KT P6SM -RA OVC050
     FM160900 01019G25KT 4SM -RASN OVC030
     FM161200 36027G35KT 2SM -SN BR OVC025
     FM161600 36023G29KT P6SM OVC030=



000
FTUS43 KABR 152300 AAA
TAFPIR
TAF AMD
KPIR 152307Z 1523/1618 VRB06KT P6SM SCT120 OVC150
     FM160100 12013KT P6SM OVC250
     FM160500 12015KT P6SM -RA OVC050
     FM160900 01019G25KT 4SM -RASN OVC030
     FM161200 36027G35KT P6SM OVC025=



000
FTUS43 KABR 152200 AAA
TAFMBG
TAF AMD
KMBG 152215Z 1522/1618 12019G27KT P6SM SCT120 BKN150
     FM160400 08022G29KT P6SM VCSH OVC050
     FM160700 05024G30KT 4SM -RASN OVC035
     FM160900 03020G27KT 1SM -SN OVC015
     FM161300 02022G29KT P6SM OVC025=



000
FTUS43 KABR 151700
TAFPIR
TAF
KPIR 151736Z 1518/1618 14024G30KT P6SM SKC
     FM160100 12013KT P6SM OVC250
     FM160500 12015KT P6SM -RA OVC050
     FM160900 01019G25KT 4SM -RASN OVC030
     FM161200 36027G35KT P6SM OVC025=



000
FTUS43 KABR 151700
TAFMBG
TAF
KMBG 151736Z 1518/1618 15024G31KT P6SM BKN100
     FM160400 08022G29KT P6SM VCSH OVC050
     FM160700 05024G30KT 4SM -RASN OVC035
     FM160900 03020G27KT 1SM -SN OVC015
     FM161300 02022G29KT P6SM OVC025=



000
FTUS43 KABR 151700
TAFATY
TAF
KATY 151736Z 1518/1618 18012G17KT P6SM SKC
     FM152300 14019G26KT P6SM BKN250
     FM160800 09018G25KT P6SM VCSH OVC080
     FM161000 08016G23KT 4SM -RASN OVC035
     FM161200 05013G21KT 1SM -SN OVC015=



000
FTUS43 KABR 151700
TAFABR
TAF
KABR 151736Z 1518/1618 15017G20KT P6SM BKN100
     FM160200 09020G28KT P6SM BKN100
     FM160600 08021G27KT P6SM VCSH OVC080
     FM160800 09015G24KT 4SM -RASN OVC035
     FM161200 03020G27KT 1SM -SN OVC015
     FM161700 02023G30KT P6SM OVC025=



000
FTUS43 KABR 151100
TAFABR
TAF
KABR 151133Z 1512/1612 15008KT P6SM SKC
     FM151600 15019G28KT P6SM BKN100
     FM160300 11017G24KT P6SM VCSH OVC080
     FM160800 09015G24KT 1SM -RASN OVC035=



000
FTUS43 KABR 151100
TAFPIR
TAF
KPIR 151133Z 1512/1612 13009KT P6SM BKN150
     FM151500 14016G24KT P6SM BKN100
     FM160300 06010KT P6SM OVC100
     FM160600 34015KT P6SM -RA OVC070=



000
FTUS43 KABR 151100
TAFMBG
TAF
KMBG 151133Z 1512/1612 13009KT P6SM BKN100
     FM151500 14019G27KT P6SM BKN100
     FM160300 10017KT P6SM -RA OVC080
     FM160800 05014KT 3SM -SN OVC025=



000
FTUS43 KABR 151100
TAFATY
TAF
KATY 151133Z 1512/1612 14009KT P6SM SKC
     FM151700 15019G28KT P6SM BKN100
     FM160600 12017G24KT P6SM VCSH OVC080
     FM161000 09016G25KT 5SM -RA BR OVC040=



    US Dept of Commerce
    National Oceanic and Atmospheric Administration
    National Weather Service
    1325 East West Highway
    Silver Spring, MD 20910
    Page Author: NWS Internet Services Team
Disclaimer
Information Quality
Credits
Glossary
Privacy Policy
Freedom of Information Act (FOIA)
About Us
Career Opportunities